sensor_id;sensor_type;location;lat;lon;timestamp;pressure;altitude;pressure_sealevel;temperature
9119;BMP180;4594;50.994;7.126;2023-03-31T00:01:36;99665.00;;;16.70
9119;BMP180;4594;50.994;7.126;2023-03-31T00:04:09;99658.00;;;16.70
9119;BMP180;4594;50.994;7.126;2023-03-31T00:06:39;99659.00;;;16.70
9119;BMP180;4594;50.994;7.126;2023-03-31T00:09:13;99658.00;;;16.80
9119;BMP180;4594;50.994;7.126;2023-03-31T00:11:40;99654.00;;;16.80
9119;BMP180;4594;50.994;7.126;2023-03-31T00:14:07;99666.00;;;16.90
9119;BMP180;4594;50.994;7.126;2023-03-31T00:16:35;99660.00;;;16.90
9119;BMP180;4594;50.994;7.126;2023-03-31T00:19:03;99644.00;;;16.90
9119;BMP180;4594;50.994;7.126;2023-03-31T00:21:29;99632.00;;;16.90
9119;BMP180;4594;50.994;7.126;2023-03-31T00:24:10;99647.00;;;16.90
9119;BMP180;4594;50.994;7.126;2023-03-31T00:26:37;99619.00;;;16.90
9119;BMP180;4594;50.994;7.126;2023-03-31T00:29:06;99634.00;;;16.90
9119;BMP180;4594;50.994;7.126;2023-03-31T00:31:34;99637.00;;;16.80
9119;BMP180;4594;50.994;7.126;2023-03-31T00:34:00;99620.00;;;16.80
9119;BMP180;4594;50.994;7.126;2023-03-31T00:36:27;99613.00;;;16.70
9119;BMP180;4594;50.994;7.126;2023-03-31T00:39:00;99602.00;;;16.70
9119;BMP180;4594;50.994;7.126;2023-03-31T00:41:37;99605.00;;;16.60
9119;BMP180;4594;50.994;7.126;2023-03-31T00:44:15;99602.00;;;16.60
9119;BMP180;4594;50.994;7.126;2023-03-31T00:46:56;99597.00;;;16.60
9119;BMP180;4594;50.994;7.126;2023-03-31T00:52:07;99573.00;;;16.60
9119;BMP180;4594;50.994;7.126;2023-03-31T00:54:39;99567.00;;;16.60
9119;BMP180;4594;50.994;7.126;2023-03-31T00:57:08;99556.00;;;16.50
9119;BMP180;4594;50.994;7.126;2023-03-31T00:59:44;99563.00;;;16.50
9119;BMP180;4594;50.994;7.126;2023-03-31T01:02:13;99546.00;;;16.50
9119;BMP180;4594;50.994;7.126;2023-03-31T01:04:47;99540.00;;;16.40
9119;BMP180;4594;50.994;7.126;2023-03-31T01:07:27;99536.00;;;16.40
9119;BMP180;4594;50.994;7.126;2023-03-31T01:09:59;99539.00;;;16.40
9119;BMP180;4594;50.994;7.126;2023-03-31T01:12:26;99535.00;;;16.40
9119;BMP180;4594;50.994;7.126;2023-03-31T01:14:53;99534.00;;;16.40
9119;BMP180;4594;50.994;7.126;2023-03-31T01:17:21;99508.00;;;16.40
9119;BMP180;4594;50.994;7.126;2023-03-31T01:26:17;99494.00;;;16.30
9119;BMP180;4594;50.994;7.126;2023-03-31T01:29:06;99504.00;;;16.30
9119;BMP180;4594;50.994;7.126;2023-03-31T01:44:09;99474.00;;;16.20
9119;BMP180;4594;50.994;7.126;2023-03-31T01:46:59;99477.00;;;16.20
9119;BMP180;4594;50.994;7.126;2023-03-31T01:49:39;99468.00;;;16.30
9119;BMP180;4594;50.994;7.126;2023-03-31T01:52:46;99459.00;;;16.30
9119;BMP180;4594;50.994;7.126;2023-03-31T01:55:38;99451.00;;;16.30
9119;BMP180;4594;50.994;7.126;2023-03-31T01:58:31;99455.00;;;16.40
9119;BMP180;4594;50.994;7.126;2023-03-31T02:01:07;99438.00;;;16.40
9119;BMP180;4594;50.994;7.126;2023-03-31T02:03:44;99444.00;;;16.40
9119;BMP180;4594;50.994;7.126;2023-03-31T02:06:22;99448.00;;;16.40
9119;BMP180;4594;50.994;7.126;2023-03-31T02:09:12;99443.00;;;16.30
9119;BMP180;4594;50.994;7.126;2023-03-31T02:11:42;99435.00;;;16.30
9119;BMP180;4594;50.994;7.126;2023-03-31T02:14:14;99437.00;;;16.20
9119;BMP180;4594;50.994;7.126;2023-03-31T02:16:46;99424.00;;;16.20
9119;BMP180;4594;50.994;7.126;2023-03-31T02:19:17;99418.00;;;16.20
9119;BMP180;4594;50.994;7.126;2023-03-31T02:21:47;99406.00;;;16.10
9119;BMP180;4594;50.994;7.126;2023-03-31T02:24:16;99413.00;;;16.10
9119;BMP180;4594;50.994;7.126;2023-03-31T02:26:56;99392.00;;;16.10
9119;BMP180;4594;50.994;7.126;2023-03-31T02:29:25;99392.00;;;16.00
9119;BMP180;4594;50.994;7.126;2023-03-31T02:31:57;99377.00;;;16.00
9119;BMP180;4594;50.994;7.126;2023-03-31T02:34:25;99377.00;;;16.00
9119;BMP180;4594;50.994;7.126;2023-03-31T02:36:51;99376.00;;;16.00
9119;BMP180;4594;50.994;7.126;2023-03-31T02:39:24;99358.00;;;16.00
9119;BMP180;4594;50.994;7.126;2023-03-31T02:41:52;99340.00;;;15.90
9119;BMP180;4594;50.994;7.126;2023-03-31T02:44:18;99334.00;;;15.90
9119;BMP180;4594;50.994;7.126;2023-03-31T02:46:44;99326.00;;;15.90
9119;BMP180;4594;50.994;7.126;2023-03-31T02:49:12;99317.00;;;15.90
9119;BMP180;4594;50.994;7.126;2023-03-31T03:01:10;99294.00;;;15.70
9119;BMP180;4594;50.994;7.126;2023-03-31T03:06:51;99258.00;;;15.70
9119;BMP180;4594;50.994;7.126;2023-03-31T03:10:01;99237.00;;;15.70
9119;BMP180;4594;50.994;7.126;2023-03-31T03:12:39;99237.00;;;15.60
9119;BMP180;4594;50.994;7.126;2023-03-31T03:15:17;99225.00;;;15.60
9119;BMP180;4594;50.994;7.126;2023-03-31T03:17:47;99224.00;;;15.60
9119;BMP180;4594;50.994;7.126;2023-03-31T03:20:18;99226.00;;;15.60
9119;BMP180;4594;50.994;7.126;2023-03-31T03:22:44;99227.00;;;15.60
9119;BMP180;4594;50.994;7.126;2023-03-31T03:25:13;99210.00;;;15.60
9119;BMP180;4594;50.994;7.126;2023-03-31T03:27:41;99221.00;;;15.60
9119;BMP180;4594;50.994;7.126;2023-03-31T03:30:11;99204.00;;;15.60
9119;BMP180;4594;50.994;7.126;2023-03-31T03:32:37;99213.00;;;15.60
9119;BMP180;4594;50.994;7.126;2023-03-31T03:35:05;99226.00;;;15.60
9119;BMP180;4594;50.994;7.126;2023-03-31T03:37:31;99230.00;;;15.60
9119;BMP180;4594;50.994;7.126;2023-03-31T03:39:57;99209.00;;;15.60
9119;BMP180;4594;50.994;7.126;2023-03-31T03:42:23;99208.00;;;15.60
9119;BMP180;4594;50.994;7.126;2023-03-31T03:44:49;99192.00;;;15.60
9119;BMP180;4594;50.994;7.126;2023-03-31T03:47:15;99178.00;;;15.60
9119;BMP180;4594;50.994;7.126;2023-03-31T03:49:41;99155.00;;;15.60
9119;BMP180;4594;50.994;7.126;2023-03-31T03:52:07;99174.00;;;15.60
9119;BMP180;4594;50.994;7.126;2023-03-31T03:54:33;99175.00;;;15.60
9119;BMP180;4594;50.994;7.126;2023-03-31T03:56:58;99157.00;;;15.60
9119;BMP180;4594;50.994;7.126;2023-03-31T03:59:24;99160.00;;;15.60
9119;BMP180;4594;50.994;7.126;2023-03-31T04:01:50;99162.00;;;15.60
9119;BMP180;4594;50.994;7.126;2023-03-31T04:04:17;99152.00;;;15.60
9119;BMP180;4594;50.994;7.126;2023-03-31T04:06:43;99159.00;;;15.60
9119;BMP180;4594;50.994;7.126;2023-03-31T04:09:09;99150.00;;;15.60
9119;BMP180;4594;50.994;7.126;2023-03-31T04:11:35;99154.00;;;15.60
9119;BMP180;4594;50.994;7.126;2023-03-31T04:14:01;99147.00;;;15.60
9119;BMP180;4594;50.994;7.126;2023-03-31T04:16:26;99138.00;;;15.60
9119;BMP180;4594;50.994;7.126;2023-03-31T04:18:53;99146.00;;;15.60
9119;BMP180;4594;50.994;7.126;2023-03-31T04:21:22;99137.00;;;15.60
9119;BMP180;4594;50.994;7.126;2023-03-31T04:23:53;99149.00;;;15.60
9119;BMP180;4594;50.994;7.126;2023-03-31T04:26:34;99135.00;;;15.50
9119;BMP180;4594;50.994;7.126;2023-03-31T04:29:10;99129.00;;;15.50
9119;BMP180;4594;50.994;7.126;2023-03-31T04:31:40;99113.00;;;15.50
9119;BMP180;4594;50.994;7.126;2023-03-31T04:34:12;99104.00;;;15.50
9119;BMP180;4594;50.994;7.126;2023-03-31T04:36:45;99105.00;;;15.40
9119;BMP180;4594;50.994;7.126;2023-03-31T04:39:16;99101.00;;;15.40
9119;BMP180;4594;50.994;7.126;2023-03-31T04:41:42;99086.00;;;15.30
9119;BMP180;4594;50.994;7.126;2023-03-31T04:44:08;99056.00;;;15.30
9119;BMP180;4594;50.994;7.126;2023-03-31T04:46:34;99051.00;;;15.30
9119;BMP180;4594;50.994;7.126;2023-03-31T04:49:00;99043.00;;;15.30
9119;BMP180;4594;50.994;7.126;2023-03-31T04:51:28;99035.00;;;15.20
9119;BMP180;4594;50.994;7.126;2023-03-31T04:53:53;99026.00;;;15.20
9119;BMP180;4594;50.994;7.126;2023-03-31T04:56:19;99041.00;;;15.20
9119;BMP180;4594;50.994;7.126;2023-03-31T04:58:45;99027.00;;;15.20
9119;BMP180;4594;50.994;7.126;2023-03-31T05:01:11;99009.00;;;15.20
9119;BMP180;4594;50.994;7.126;2023-03-31T05:03:43;99018.00;;;15.10
9119;BMP180;4594;50.994;7.126;2023-03-31T05:06:09;99014.00;;;15.10
9119;BMP180;4594;50.994;7.126;2023-03-31T05:08:35;99013.00;;;15.10
9119;BMP180;4594;50.994;7.126;2023-03-31T05:11:03;99008.00;;;15.10
9119;BMP180;4594;50.994;7.126;2023-03-31T05:13:29;98993.00;;;15.10
9119;BMP180;4594;50.994;7.126;2023-03-31T05:15:54;98978.00;;;15.00
9119;BMP180;4594;50.994;7.126;2023-03-31T05:18:20;98977.00;;;15.00
9119;BMP180;4594;50.994;7.126;2023-03-31T05:20:46;98968.00;;;15.00
9119;BMP180;4594;50.994;7.126;2023-03-31T05:23:13;98983.00;;;15.00
9119;BMP180;4594;50.994;7.126;2023-03-31T05:25:38;98971.00;;;14.90
9119;BMP180;4594;50.994;7.126;2023-03-31T05:28:07;98967.00;;;14.90
9119;BMP180;4594;50.994;7.126;2023-03-31T05:30:34;98939.00;;;14.90
9119;BMP180;4594;50.994;7.126;2023-03-31T05:33:00;98944.00;;;14.90
9119;BMP180;4594;50.994;7.126;2023-03-31T05:35:26;98951.00;;;14.90
9119;BMP180;4594;50.994;7.126;2023-03-31T05:37:52;98953.00;;;14.80
9119;BMP180;4594;50.994;7.126;2023-03-31T05:40:17;98955.00;;;14.80
9119;BMP180;4594;50.994;7.126;2023-03-31T05:42:43;98944.00;;;14.80
9119;BMP180;4594;50.994;7.126;2023-03-31T05:45:09;98925.00;;;14.90
9119;BMP180;4594;50.994;7.126;2023-03-31T05:47:35;98927.00;;;14.90
9119;BMP180;4594;50.994;7.126;2023-03-31T05:50:01;98934.00;;;14.90
9119;BMP180;4594;50.994;7.126;2023-03-31T05:52:32;98919.00;;;14.90
9119;BMP180;4594;50.994;7.126;2023-03-31T05:54:58;98921.00;;;14.90
9119;BMP180;4594;50.994;7.126;2023-03-31T05:57:23;98905.00;;;14.90
9119;BMP180;4594;50.994;7.126;2023-03-31T05:59:49;98912.00;;;14.90
9119;BMP180;4594;50.994;7.126;2023-03-31T06:02:14;98909.00;;;14.90
9119;BMP180;4594;50.994;7.126;2023-03-31T06:04:41;98918.00;;;14.90
9119;BMP180;4594;50.994;7.126;2023-03-31T06:07:08;98916.00;;;14.90
9119;BMP180;4594;50.994;7.126;2023-03-31T06:09:34;98907.00;;;14.90
9119;BMP180;4594;50.994;7.126;2023-03-31T06:12:00;98904.00;;;14.90
9119;BMP180;4594;50.994;7.126;2023-03-31T06:14:26;98917.00;;;14.90
9119;BMP180;4594;50.994;7.126;2023-03-31T06:16:52;98907.00;;;14.90
9119;BMP180;4594;50.994;7.126;2023-03-31T06:19:18;98911.00;;;14.90
9119;BMP180;4594;50.994;7.126;2023-03-31T06:21:44;98891.00;;;15.00
9119;BMP180;4594;50.994;7.126;2023-03-31T06:24:10;98900.00;;;14.90
9119;BMP180;4594;50.994;7.126;2023-03-31T06:26:36;98906.00;;;15.00
9119;BMP180;4594;50.994;7.126;2023-03-31T06:29:02;98900.00;;;15.00
9119;BMP180;4594;50.994;7.126;2023-03-31T06:31:27;98885.00;;;15.00
9119;BMP180;4594;50.994;7.126;2023-03-31T06:33:53;98876.00;;;15.00
9119;BMP180;4594;50.994;7.126;2023-03-31T06:36:21;98879.00;;;15.00
9119;BMP180;4594;50.994;7.126;2023-03-31T06:38:48;98881.00;;;15.00
9119;BMP180;4594;50.994;7.126;2023-03-31T06:41:16;98872.00;;;15.00
9119;BMP180;4594;50.994;7.126;2023-03-31T06:43:43;98880.00;;;15.00
9119;BMP180;4594;50.994;7.126;2023-03-31T06:46:08;98874.00;;;15.00
9119;BMP180;4594;50.994;7.126;2023-03-31T06:48:34;98883.00;;;15.00
9119;BMP180;4594;50.994;7.126;2023-03-31T06:51:04;98867.00;;;15.00
9119;BMP180;4594;50.994;7.126;2023-03-31T06:53:30;98860.00;;;15.00
9119;BMP180;4594;50.994;7.126;2023-03-31T06:55:56;98855.00;;;15.10
9119;BMP180;4594;50.994;7.126;2023-03-31T06:58:22;98863.00;;;15.10
9119;BMP180;4594;50.994;7.126;2023-03-31T07:00:48;98860.00;;;15.10
9119;BMP180;4594;50.994;7.126;2023-03-31T07:03:14;98861.00;;;15.10
9119;BMP180;4594;50.994;7.126;2023-03-31T07:05:48;98860.00;;;15.10
9119;BMP180;4594;50.994;7.126;2023-03-31T07:08:15;98862.00;;;15.20
9119;BMP180;4594;50.994;7.126;2023-03-31T07:10:43;98853.00;;;15.20
9119;BMP180;4594;50.994;7.126;2023-03-31T07:13:16;98851.00;;;15.20
9119;BMP180;4594;50.994;7.126;2023-03-31T07:15:42;98850.00;;;15.30
9119;BMP180;4594;50.994;7.126;2023-03-31T07:18:08;98845.00;;;15.40
9119;BMP180;4594;50.994;7.126;2023-03-31T07:20:34;98841.00;;;15.50
9119;BMP180;4594;50.994;7.126;2023-03-31T07:23:04;98851.00;;;15.70
9119;BMP180;4594;50.994;7.126;2023-03-31T07:25:30;98849.00;;;15.70
9119;BMP180;4594;50.994;7.126;2023-03-31T07:27:56;98849.00;;;15.70
9119;BMP180;4594;50.994;7.126;2023-03-31T07:30:22;98848.00;;;15.70
9119;BMP180;4594;50.994;7.126;2023-03-31T07:32:50;98848.00;;;15.80
9119;BMP180;4594;50.994;7.126;2023-03-31T07:35:17;98848.00;;;15.80
9119;BMP180;4594;50.994;7.126;2023-03-31T07:37:46;98841.00;;;15.80
9119;BMP180;4594;50.994;7.126;2023-03-31T07:40:25;98835.00;;;15.80
9119;BMP180;4594;50.994;7.126;2023-03-31T07:42:52;98832.00;;;15.80
9119;BMP180;4594;50.994;7.126;2023-03-31T07:45:21;98830.00;;;15.80
9119;BMP180;4594;50.994;7.126;2023-03-31T07:47:47;98826.00;;;15.80
9119;BMP180;4594;50.994;7.126;2023-03-31T07:50:15;98832.00;;;15.80
9119;BMP180;4594;50.994;7.126;2023-03-31T07:52:41;98819.00;;;15.80
9119;BMP180;4594;50.994;7.126;2023-03-31T07:55:08;98832.00;;;15.90
9119;BMP180;4594;50.994;7.126;2023-03-31T07:57:35;98821.00;;;16.10
9119;BMP180;4594;50.994;7.126;2023-03-31T08:00:05;98823.00;;;16.20
9119;BMP180;4594;50.994;7.126;2023-03-31T08:02:33;98825.00;;;16.40
9119;BMP180;4594;50.994;7.126;2023-03-31T08:04:59;98819.00;;;16.70
9119;BMP180;4594;50.994;7.126;2023-03-31T08:07:25;98826.00;;;17.00
9119;BMP180;4594;50.994;7.126;2023-03-31T08:09:51;98824.00;;;17.10
9119;BMP180;4594;50.994;7.126;2023-03-31T08:12:17;98824.00;;;17.20
9119;BMP180;4594;50.994;7.126;2023-03-31T08:14:42;98816.00;;;17.30
9119;BMP180;4594;50.994;7.126;2023-03-31T08:17:09;98809.00;;;17.30
9119;BMP180;4594;50.994;7.126;2023-03-31T08:19:35;98819.00;;;17.30
9119;BMP180;4594;50.994;7.126;2023-03-31T08:22:02;98812.00;;;17.30
9119;BMP180;4594;50.994;7.126;2023-03-31T08:24:28;98801.00;;;17.30
9119;BMP180;4594;50.994;7.126;2023-03-31T08:26:53;98802.00;;;17.30
9119;BMP180;4594;50.994;7.126;2023-03-31T08:29:19;98792.00;;;17.30
9119;BMP180;4594;50.994;7.126;2023-03-31T08:31:45;98792.00;;;17.40
9119;BMP180;4594;50.994;7.126;2023-03-31T08:34:10;98795.00;;;17.40
9119;BMP180;4594;50.994;7.126;2023-03-31T08:36:36;98781.00;;;17.40
9119;BMP180;4594;50.994;7.126;2023-03-31T08:39:02;98785.00;;;17.40
9119;BMP180;4594;50.994;7.126;2023-03-31T08:41:53;98786.00;;;17.60
9119;BMP180;4594;50.994;7.126;2023-03-31T08:44:59;98778.00;;;17.80
9119;BMP180;4594;50.994;7.126;2023-03-31T08:47:28;98762.00;;;18.10
9119;BMP180;4594;50.994;7.126;2023-03-31T08:50:02;98776.00;;;18.20
9119;BMP180;4594;50.994;7.126;2023-03-31T08:52:37;98778.00;;;18.30
9119;BMP180;4594;50.994;7.126;2023-03-31T08:55:15;98771.00;;;18.40
9119;BMP180;4594;50.994;7.126;2023-03-31T08:58:07;98773.00;;;18.40
9119;BMP180;4594;50.994;7.126;2023-03-31T09:00:53;98762.00;;;18.60
9119;BMP180;4594;50.994;7.126;2023-03-31T09:03:37;98765.00;;;18.60
9119;BMP180;4594;50.994;7.126;2023-03-31T09:06:34;98754.00;;;18.80
9119;BMP180;4594;50.994;7.126;2023-03-31T09:09:02;98763.00;;;19.10
9119;BMP180;4594;50.994;7.126;2023-03-31T09:11:42;98737.00;;;19.30
9119;BMP180;4594;50.994;7.126;2023-03-31T09:15:21;98758.00;;;19.40
9119;BMP180;4594;50.994;7.126;2023-03-31T09:17:47;98748.00;;;19.70
9119;BMP180;4594;50.994;7.126;2023-03-31T09:20:25;98752.00;;;19.90
9119;BMP180;4594;50.994;7.126;2023-03-31T09:25:39;98735.00;;;20.30
9119;BMP180;4594;50.994;7.126;2023-03-31T09:28:18;98741.00;;;20.50
9119;BMP180;4594;50.994;7.126;2023-03-31T09:30:47;98734.00;;;20.50
9119;BMP180;4594;50.994;7.126;2023-03-31T09:33:29;98731.00;;;20.60
9119;BMP180;4594;50.994;7.126;2023-03-31T09:36:11;98728.00;;;20.80
9119;BMP180;4594;50.994;7.126;2023-03-31T09:38:41;98730.00;;;20.90
9119;BMP180;4594;50.994;7.126;2023-03-31T09:41:08;98723.00;;;21.00
9119;BMP180;4594;50.994;7.126;2023-03-31T09:43:35;98704.00;;;21.10
9119;BMP180;4594;50.994;7.126;2023-03-31T09:46:14;98705.00;;;21.20
9119;BMP180;4594;50.994;7.126;2023-03-31T09:48:54;98714.00;;;21.20
9119;BMP180;4594;50.994;7.126;2023-03-31T09:51:29;98712.00;;;21.10
9119;BMP180;4594;50.994;7.126;2023-03-31T09:54:23;98714.00;;;20.90
9119;BMP180;4594;50.994;7.126;2023-03-31T09:56:51;98715.00;;;20.70
9119;BMP180;4594;50.994;7.126;2023-03-31T09:59:38;98707.00;;;20.50
9119;BMP180;4594;50.994;7.126;2023-03-31T10:02:36;98688.00;;;20.30
9119;BMP180;4594;50.994;7.126;2023-03-31T10:05:04;98699.00;;;20.30
9119;BMP180;4594;50.994;7.126;2023-03-31T10:07:32;98714.00;;;20.20
9119;BMP180;4594;50.994;7.126;2023-03-31T10:10:00;98701.00;;;20.30
9119;BMP180;4594;50.994;7.126;2023-03-31T10:12:30;98696.00;;;20.70
9119;BMP180;4594;50.994;7.126;2023-03-31T10:15:26;98667.00;;;21.50
9119;BMP180;4594;50.994;7.126;2023-03-31T10:17:52;98667.00;;;22.50
9119;BMP180;4594;50.994;7.126;2023-03-31T10:20:51;98687.00;;;23.60
9119;BMP180;4594;50.994;7.126;2023-03-31T10:23:29;98684.00;;;23.90
9119;BMP180;4594;50.994;7.126;2023-03-31T10:25:56;98681.00;;;24.10
9119;BMP180;4594;50.994;7.126;2023-03-31T10:28:22;98676.00;;;24.20
9119;BMP180;4594;50.994;7.126;2023-03-31T10:30:55;98674.00;;;24.10
9119;BMP180;4594;50.994;7.126;2023-03-31T10:33:25;98690.00;;;24.00
9119;BMP180;4594;50.994;7.126;2023-03-31T10:36:24;98669.00;;;23.80
9119;BMP180;4594;50.994;7.126;2023-03-31T10:38:52;98677.00;;;23.90
9119;BMP180;4594;50.994;7.126;2023-03-31T10:41:26;98672.00;;;23.90
9119;BMP180;4594;50.994;7.126;2023-03-31T10:43:56;98669.00;;;23.90
9119;BMP180;4594;50.994;7.126;2023-03-31T10:46:45;98664.00;;;23.90
9119;BMP180;4594;50.994;7.126;2023-03-31T10:49:25;98666.00;;;23.90
9119;BMP180;4594;50.994;7.126;2023-03-31T10:51:54;98661.00;;;24.00
9119;BMP180;4594;50.994;7.126;2023-03-31T10:54:21;98656.00;;;24.00
9119;BMP180;4594;50.994;7.126;2023-03-31T10:56:57;98654.00;;;24.00
9119;BMP180;4594;50.994;7.126;2023-03-31T11:00:10;98667.00;;;24.10
9119;BMP180;4594;50.994;7.126;2023-03-31T11:03:28;98649.00;;;23.90
9119;BMP180;4594;50.994;7.126;2023-03-31T11:06:18;98656.00;;;23.90
9119;BMP180;4594;50.994;7.126;2023-03-31T11:09:15;98662.00;;;23.70
9119;BMP180;4594;50.994;7.126;2023-03-31T11:11:57;98664.00;;;23.50
9119;BMP180;4594;50.994;7.126;2023-03-31T11:22:55;98656.00;;;23.40
9119;BMP180;4594;50.994;7.126;2023-03-31T11:25:37;98663.00;;;23.40
9119;BMP180;4594;50.994;7.126;2023-03-31T11:34:35;98665.00;;;22.80
9119;BMP180;4594;50.994;7.126;2023-03-31T11:38:00;98675.00;;;22.70
9119;BMP180;4594;50.994;7.126;2023-03-31T11:40:58;98675.00;;;22.50
9119;BMP180;4594;50.994;7.126;2023-03-31T11:43:41;98674.00;;;22.40
9119;BMP180;4594;50.994;7.126;2023-03-31T11:49:27;98667.00;;;22.20
9119;BMP180;4594;50.994;7.126;2023-03-31T11:52:02;98670.00;;;22.10
9119;BMP180;4594;50.994;7.126;2023-03-31T11:54:49;98669.00;;;22.00
9119;BMP180;4594;50.994;7.126;2023-03-31T11:57:36;98655.00;;;21.90
9119;BMP180;4594;50.994;7.126;2023-03-31T12:00:28;98662.00;;;21.80
9119;BMP180;4594;50.994;7.126;2023-03-31T12:06:17;98647.00;;;21.70
9119;BMP180;4594;50.994;7.126;2023-03-31T12:11:55;98635.00;;;21.60
9119;BMP180;4594;50.994;7.126;2023-03-31T12:14:40;98630.00;;;21.60
9119;BMP180;4594;50.994;7.126;2023-03-31T12:17:17;98615.00;;;21.60
9119;BMP180;4594;50.994;7.126;2023-03-31T12:24:46;98615.00;;;21.30
9119;BMP180;4594;50.994;7.126;2023-03-31T12:32:22;98608.00;;;21.30
9119;BMP180;4594;50.994;7.126;2023-03-31T12:35:19;98613.00;;;21.30
9119;BMP180;4594;50.994;7.126;2023-03-31T12:38:34;98606.00;;;21.40
9119;BMP180;4594;50.994;7.126;2023-03-31T12:44:15;98604.00;;;21.30
9119;BMP180;4594;50.994;7.126;2023-03-31T12:47:38;98597.00;;;21.20
9119;BMP180;4594;50.994;7.126;2023-03-31T12:56:13;98570.00;;;21.00
9119;BMP180;4594;50.994;7.126;2023-03-31T12:58:44;98593.00;;;20.90
9119;BMP180;4594;50.994;7.126;2023-03-31T13:01:21;98578.00;;;20.80
9119;BMP180;4594;50.994;7.126;2023-03-31T13:08:59;98574.00;;;20.80
9119;BMP180;4594;50.994;7.126;2023-03-31T13:14:36;98570.00;;;20.80
9119;BMP180;4594;50.994;7.126;2023-03-31T13:17:36;98601.00;;;20.80
9119;BMP180;4594;50.994;7.126;2023-03-31T13:21:03;98591.00;;;20.70
9119;BMP180;4594;50.994;7.126;2023-03-31T13:23:34;98594.00;;;20.60
9119;BMP180;4594;50.994;7.126;2023-03-31T13:26:02;98581.00;;;20.60
9119;BMP180;4594;50.994;7.126;2023-03-31T13:28:33;98595.00;;;20.60
9119;BMP180;4594;50.994;7.126;2023-03-31T13:31:08;98601.00;;;20.50
9119;BMP180;4594;50.994;7.126;2023-03-31T13:48:23;98597.00;;;20.60
9119;BMP180;4594;50.994;7.126;2023-03-31T13:57:39;98591.00;;;20.60
9119;BMP180;4594;50.994;7.126;2023-03-31T14:03:16;98596.00;;;20.60
9119;BMP180;4594;50.994;7.126;2023-03-31T14:05:47;98597.00;;;20.60
9119;BMP180;4594;50.994;7.126;2023-03-31T14:11:26;98587.00;;;20.50
9119;BMP180;4594;50.994;7.126;2023-03-31T14:14:17;98577.00;;;20.50
9119;BMP180;4594;50.994;7.126;2023-03-31T14:16:57;98574.00;;;20.60
9119;BMP180;4594;50.994;7.126;2023-03-31T14:22:42;98567.00;;;20.60
9119;BMP180;4594;50.994;7.126;2023-03-31T14:31:14;98552.00;;;20.90
9119;BMP180;4594;50.994;7.126;2023-03-31T14:36:55;98555.00;;;20.80
9119;BMP180;4594;50.994;7.126;2023-03-31T14:39:30;98553.00;;;20.80
9119;BMP180;4594;50.994;7.126;2023-03-31T14:42:03;98550.00;;;20.80
9119;BMP180;4594;50.994;7.126;2023-03-31T14:44:32;98531.00;;;20.70
9119;BMP180;4594;50.994;7.126;2023-03-31T14:46:59;98523.00;;;20.70
9119;BMP180;4594;50.994;7.126;2023-03-31T14:49:34;98531.00;;;20.70
9119;BMP180;4594;50.994;7.126;2023-03-31T14:52:17;98535.00;;;20.70
9119;BMP180;4594;50.994;7.126;2023-03-31T14:54:45;98537.00;;;20.70
9119;BMP180;4594;50.994;7.126;2023-03-31T14:57:27;98529.00;;;20.70
9119;BMP180;4594;50.994;7.126;2023-03-31T14:59:55;98524.00;;;20.70
9119;BMP180;4594;50.994;7.126;2023-03-31T15:02:47;98521.00;;;20.70
9119;BMP180;4594;50.994;7.126;2023-03-31T15:05:31;98520.00;;;20.70
9119;BMP180;4594;50.994;7.126;2023-03-31T15:08:03;98501.00;;;20.70
9119;BMP180;4594;50.994;7.126;2023-03-31T15:10:36;98505.00;;;20.70
9119;BMP180;4594;50.994;7.126;2023-03-31T15:13:20;98513.00;;;20.70
9119;BMP180;4594;50.994;7.126;2023-03-31T15:15:48;98511.00;;;20.70
9119;BMP180;4594;50.994;7.126;2023-03-31T15:18:17;98500.00;;;20.60
9119;BMP180;4594;50.994;7.126;2023-03-31T15:20:44;98512.00;;;20.60
9119;BMP180;4594;50.994;7.126;2023-03-31T15:23:39;98504.00;;;20.60
9119;BMP180;4594;50.994;7.126;2023-03-31T15:26:09;98508.00;;;20.50
9119;BMP180;4594;50.994;7.126;2023-03-31T15:28:50;98492.00;;;20.50
9119;BMP180;4594;50.994;7.126;2023-03-31T15:31:17;98504.00;;;20.40
9119;BMP180;4594;50.994;7.126;2023-03-31T15:33:43;98498.00;;;20.40
9119;BMP180;4594;50.994;7.126;2023-03-31T15:36:11;98495.00;;;20.30
9119;BMP180;4594;50.994;7.126;2023-03-31T15:38:38;98502.00;;;20.30
9119;BMP180;4594;50.994;7.126;2023-03-31T15:41:15;98510.00;;;20.30
9119;BMP180;4594;50.994;7.126;2023-03-31T15:43:47;98514.00;;;20.20
9119;BMP180;4594;50.994;7.126;2023-03-31T15:49:02;98501.00;;;20.00
9119;BMP180;4594;50.994;7.126;2023-03-31T15:51:34;98519.00;;;20.00
9119;BMP180;4594;50.994;7.126;2023-03-31T15:54:01;98523.00;;;19.90
9119;BMP180;4594;50.994;7.126;2023-03-31T15:56:39;98527.00;;;19.80
9119;BMP180;4594;50.994;7.126;2023-03-31T15:59:22;98551.00;;;19.70
9119;BMP180;4594;50.994;7.126;2023-03-31T16:01:49;98564.00;;;19.50
9119;BMP180;4594;50.994;7.126;2023-03-31T16:04:17;98560.00;;;19.40
9119;BMP180;4594;50.994;7.126;2023-03-31T16:12:00;98564.00;;;18.90
9119;BMP180;4594;50.994;7.126;2023-03-31T16:14:51;98553.00;;;18.80
9119;BMP180;4594;50.994;7.126;2023-03-31T16:17:26;98564.00;;;18.80
9119;BMP180;4594;50.994;7.126;2023-03-31T16:20:03;98578.00;;;18.70
9119;BMP180;4594;50.994;7.126;2023-03-31T16:22:40;98581.00;;;18.70
9119;BMP180;4594;50.994;7.126;2023-03-31T16:25:16;98571.00;;;18.60
9119;BMP180;4594;50.994;7.126;2023-03-31T16:27:48;98570.00;;;18.40
9119;BMP180;4594;50.994;7.126;2023-03-31T16:30:20;98564.00;;;18.40
9119;BMP180;4594;50.994;7.126;2023-03-31T16:33:03;98587.00;;;18.20
9119;BMP180;4594;50.994;7.126;2023-03-31T16:35:42;98581.00;;;18.10
9119;BMP180;4594;50.994;7.126;2023-03-31T16:38:11;98563.00;;;18.10
9119;BMP180;4594;50.994;7.126;2023-03-31T16:40:43;98556.00;;;18.00
9119;BMP180;4594;50.994;7.126;2023-03-31T16:43:18;98558.00;;;18.00
9119;BMP180;4594;50.994;7.126;2023-03-31T16:45:59;98552.00;;;17.90
9119;BMP180;4594;50.994;7.126;2023-03-31T16:48:28;98556.00;;;17.90
9119;BMP180;4594;50.994;7.126;2023-03-31T16:50:57;98547.00;;;17.80
9119;BMP180;4594;50.994;7.126;2023-03-31T16:53:27;98554.00;;;17.80
9119;BMP180;4594;50.994;7.126;2023-03-31T16:55:54;98550.00;;;17.70
9119;BMP180;4594;50.994;7.126;2023-03-31T16:58:21;98546.00;;;17.70
9119;BMP180;4594;50.994;7.126;2023-03-31T17:00:49;98556.00;;;17.70
9119;BMP180;4594;50.994;7.126;2023-03-31T17:03:15;98548.00;;;17.70
9119;BMP180;4594;50.994;7.126;2023-03-31T17:05:44;98549.00;;;17.60
9119;BMP180;4594;50.994;7.126;2023-03-31T17:08:11;98544.00;;;17.60
9119;BMP180;4594;50.994;7.126;2023-03-31T17:10:39;98548.00;;;17.60
9119;BMP180;4594;50.994;7.126;2023-03-31T17:13:07;98542.00;;;17.70
9119;BMP180;4594;50.994;7.126;2023-03-31T17:15:33;98529.00;;;17.70
9119;BMP180;4594;50.994;7.126;2023-03-31T17:18:01;98536.00;;;17.60
9119;BMP180;4594;50.994;7.126;2023-03-31T17:20:28;98521.00;;;17.60
9119;BMP180;4594;50.994;7.126;2023-03-31T17:22:55;98521.00;;;17.60
9119;BMP180;4594;50.994;7.126;2023-03-31T17:25:21;98537.00;;;17.60